Terminal Aerodrome Forecast
Issued by NWS Bismarck, ND

Home | Current Version | Previous Version | Text Only | Print | Product List | Glossary On
Versions: 1 2 3 4 5 6 7 8 9 10 11 12 13 14 15 16 17 18 19 20 21 22 23 24
000
FTUS43 KBIS 111300 AAA
TAFBIS
TAF AMD
KBIS 111321Z 1113/1212 34006KT P6SM BKN007 BKN015
      TEMPO 1114/1115 SCT010 SCT025
     FM111500 01010KT P6SM SCT120
     FM120500 02005KT P6SM BKN050=

USA.gov is the U.S. government's official web portal to all federal, state and local government web resources and services.